Time;durP1;ratioP1;P1;durP2;ratioP2;P2;SDS_P1;SDS_P2;PMS_P1;PMS_P2;Temp;Humidity;BMP_temperature;BMP_pressure;BME280_temperature;BME280_humidity;BME280_pressure;Samples;Min_cycle;Max_cycle;Signal;HPM_P1;HPM_P2
2021/06/06 00:00:52;;;;;;;0.50;0.40;;;;;;;18.20;100.00;100752.47;4979652;28;20454;-75
2021/06/06 00:03:35;;;;;;;0.53;0.47;;;;;;;18.43;100.00;100752.13;4993232;28;20466;-75
2021/06/06 00:06:04;;;;;;;0.60;0.60;;;;;;;18.50;100.00;100755.34;4985232;28;20821;-75
2021/06/06 00:08:31;;;;;;;1.07;1.07;;;;;;;18.84;100.00;100757.13;4988582;28;20469;-75
2021/06/06 00:11:08;;;;;;;1.13;0.83;;;;;;;18.40;100.00;100754.13;4993232;28;20489;-75
2021/06/06 00:13:38;;;;;;;0.47;0.37;;;;;;;18.38;100.00;100747.97;4993711;28;20473;-75
2021/06/06 00:16:10;;;;;;;1.33;1.23;;;;;;;18.56;100.00;100749.66;4993419;28;20477;-74
2021/06/06 00:18:37;;;;;;;1.70;1.20;;;;;;;18.32;100.00;100754.53;4987947;28;21070;-75
2021/06/06 00:21:05;;;;;;;1.53;1.43;;;;;;;18.55;100.00;100746.09;4985401;28;20515;-74
2021/06/06 00:23:32;;;;;;;0.40;0.20;;;;;;;18.38;100.00;100751.53;4980525;28;20484;-74
2021/06/06 00:26:04;;;;;;;8.70;0.83;;;;;;;18.48;100.00;100750.06;4989135;28;20457;-73
2021/06/06 00:28:31;;;;;;;0.40;0.20;;;;;;;18.34;100.00;100756.19;4985979;28;20492;-74
2021/06/06 00:30:59;;;;;;;2.73;2.63;;;;;;;18.23;100.00;100757.72;4986211;28;20455;-74
2021/06/06 00:33:27;;;;;;;1.07;1.07;;;;;;;18.31;100.00;100748.28;4979815;28;20501;-73
2021/06/06 00:35:55;;;;;;;0.50;0.30;;;;;;;18.23;100.00;100753.22;5002271;28;20841;-73
2021/06/06 00:38:22;;;;;;;1.20;1.17;;;;;;;18.36;100.00;100748.03;4992817;28;20540;-75
2021/06/06 00:40:48;;;;;;;13.73;1.90;;;;;;;17.96;100.00;100747.47;4979538;28;20458;-72
2021/06/06 00:43:16;;;;;;;2.70;1.17;;;;;;;18.44;100.00;100750.31;4986541;28;20450;-74
2021/06/06 00:45:42;;;;;;;0.50;0.30;;;;;;;18.45;100.00;100747.53;4973739;28;21022;-74
2021/06/06 00:48:10;;;;;;;1.50;1.37;;;;;;;18.48;100.00;100747.38;4995403;28;20481;-74
2021/06/06 00:50:41;;;;;;;2.50;0.77;;;;;;;18.49;100.00;100765.25;5004731;28;20452;-74
2021/06/06 00:53:24;;;;;;;0.50;0.30;;;;;;;18.54;100.00;100755.13;4981160;28;20914;-75
2021/06/06 00:55:51;;;;;;;0.50;0.30;;;;;;;18.43;100.00;100752.13;4988976;28;20458;-76
2021/06/06 00:58:18;;;;;;;3.17;1.87;;;;;;;18.18;100.00;100760.63;4981864;28;20931;-74
2021/06/06 01:00:50;;;;;;;0.93;0.90;;;;;;;18.17;100.00;100766.97;4993097;28;20496;-74
2021/06/06 01:03:20;;;;;;;1.33;1.33;;;;;;;18.27;100.00;100759.31;4981688;28;20482;-74
2021/06/06 01:05:58;;;;;;;0.67;0.67;;;;;;;18.39;100.00;100761.34;4990719;28;20883;-74
2021/06/06 01:08:27;;;;;;;0.40;0.20;;;;;;;18.26;100.00;100763.81;4979183;28;20536;-75
2021/06/06 01:11:00;;;;;;;0.50;0.50;;;;;;;18.26;100.00;100761.13;4992359;28;20489;-75
2021/06/06 01:13:59;;;;;;;8.20;1.50;;;;;;;18.23;100.00;100763.13;4978538;28;20924;-75
2021/06/06 01:16:33;;;;;;;3.23;2.93;;;;;;;18.05;100.00;100759.53;4988821;28;20461;-75
2021/06/06 01:19:18;;;;;;;0.80;0.80;;;;;;;18.00;100.00;100757.09;5007783;28;21062;-75
2021/06/06 01:22:07;;;;;;;3.80;1.90;;;;;;;18.24;100.00;100763.03;5004764;28;20504;-75
2021/06/06 01:24:41;;;;;;;0.40;0.30;;;;;;;18.41;100.00;100763.94;4973537;28;20482;-75
2021/06/06 01:27:15;;;;;;;0.50;0.47;;;;;;;18.67;100.00;100759.88;4982669;28;20450;-75
2021/06/06 01:30:06;;;;;;;4.20;2.40;;;;;;;18.60;100.00;100762.88;4999520;28;20499;-75
2021/06/06 01:32:42;;;;;;;4.10;1.70;;;;;;;18.54;100.00;100760.50;4988165;28;20490;-75
2021/06/06 01:35:12;;;;;;;0.87;0.87;;;;;;;18.38;100.00;100761.44;4993103;28;20806;-76
2021/06/06 01:37:45;;;;;;;0.53;0.40;;;;;;;18.24;100.00;100748.69;4979878;28;20461;-76
2021/06/06 01:40:20;;;;;;;3.60;1.70;;;;;;;18.44;100.00;100748.50;4992974;28;20461;-76
2021/06/06 01:42:51;;;;;;;0.40;0.27;;;;;;;18.38;100.00;100758.72;4992581;28;20453;-76
2021/06/06 01:45:56;;;;;;;2.43;2.20;;;;;;;18.26;100.00;100754.88;4982506;28;20940;-76
2021/06/06 01:48:24;;;;;;;0.40;0.30;;;;;;;18.13;100.00;100737.63;4986594;28;21029;-75
2021/06/06 01:51:00;;;;;;;0.47;0.30;;;;;;;17.97;100.00;100754.56;4989876;28;20453;-76
2021/06/06 01:53:28;;;;;;;0.43;0.37;;;;;;;17.88;100.00;100754.16;4982313;28;20500;-76
2021/06/06 01:56:06;;;;;;;0.50;0.40;;;;;;;18.05;100.00;100756.84;4988376;28;20520;-76
2021/06/06 01:58:34;;;;;;;0.50;0.33;;;;;;;18.23;100.00;100760.41;4985215;28;20476;-76
2021/06/06 02:01:13;;;;;;;0.40;0.27;;;;;;;18.22;100.00;100751.44;5007926;28;20458;-75
2021/06/06 02:03:42;;;;;;;0.93;0.93;;;;;;;18.00;100.00;100746.34;4991562;28;20441;-75
2021/06/06 02:06:12;;;;;;;0.80;0.80;;;;;;;18.06;100.00;100754.06;4992313;28;20951;-76
2021/06/06 02:08:41;;;;;;;0.60;0.57;;;;;;;18.06;100.00;100754.06;4977886;28;20498;-75
2021/06/06 02:11:10;;;;;;;1.90;0.97;;;;;;;18.25;100.00;100764.75;4992401;28;20460;-76
2021/06/06 02:13:45;;;;;;;2.60;2.30;;;;;;;18.13;100.00;100753.78;4979029;28;20500;-75
2021/06/06 02:16:22;;;;;;;28.90;2.67;;;;;;;18.14;100.00;100761.75;4982203;28;20457;-75
2021/06/06 02:18:49;;;;;;;2.00;1.90;;;;;;;17.89;100.00;100759.47;4991353;28;20502;-75
2021/06/06 02:21:19;;;;;;;0.63;0.63;;;;;;;18.06;100.00;100756.78;5002432;28;20449;-75
2021/06/06 02:32:00;;;;;;;5.07;2.77;;;;;;;17.66;100.00;100765.97;4993110;28;20425;-75
2021/06/06 02:35:03;;;;;;;3.27;3.03;;;;;;;17.90;100.00;100769.28;4992002;28;20460;-75
2021/06/06 02:37:56;;;;;;;2.47;1.30;;;;;;;17.74;100.00;100765.63;4982172;28;20872;-75
2021/06/06 02:40:52;;;;;;;0.70;0.70;;;;;;;17.91;100.00;100751.31;4995362;28;20521;-75
2021/06/06 02:43:40;;;;;;;0.40;0.20;;;;;;;17.67;100.00;100765.00;4995092;28;20464;-75
2021/06/06 02:46:08;;;;;;;1.67;1.47;;;;;;;17.59;100.00;100761.00;4982839;28;20449;-75
2021/06/06 02:48:49;;;;;;;2.30;2.10;;;;;;;17.48;100.00;100758.84;4994469;28;20505;-75
2021/06/06 02:51:19;;;;;;;2.30;2.20;;;;;;;17.63;100.00;100763.44;4990343;28;20477;-75
2021/06/06 02:54:08;;;;;;;0.83;0.77;;;;;;;17.70;100.00;100759.53;4977959;28;20509;-75
2021/06/06 02:56:41;;;;;;;0.40;0.20;;;;;;;17.65;100.00;100755.28;5010820;28;20453;-75
2021/06/06 02:59:38;;;;;;;0.80;0.70;;;;;;;17.59;100.00;100755.63;4982168;28;20461;-76
2021/06/06 03:02:14;;;;;;;0.57;0.57;;;;;;;17.60;100.00;100760.03;4994620;28;20465;-75
2021/06/06 03:04:47;;;;;;;1.23;1.13;;;;;;;17.77;100.00;100760.09;4984929;28;20458;-75
2021/06/06 03:07:20;;;;;;;0.93;0.93;;;;;;;17.90;100.00;100753.13;4979317;28;21014;-75
2021/06/06 03:09:47;;;;;;;0.40;0.30;;;;;;;17.73;100.00;100756.69;4995224;28;20473;-75
2021/06/06 03:12:15;;;;;;;0.50;0.30;;;;;;;17.70;100.00;100754.16;4980962;28;20508;-75
2021/06/06 03:14:45;;;;;;;0.97;0.60;;;;;;;17.79;100.00;100755.50;4994909;28;20544;-75
2021/06/06 03:17:24;;;;;;;0.60;0.60;;;;;;;17.86;100.00;100748.00;4989787;28;20804;-75
2021/06/06 03:19:54;;;;;;;0.53;0.47;;;;;;;17.65;100.00;100755.28;4975494;28;20521;-75
2021/06/06 03:22:25;;;;;;;0.77;0.77;;;;;;;17.66;100.00;100752.53;4995164;28;20953;-76
2021/06/06 03:24:57;;;;;;;1.63;1.57;;;;;;;17.67;100.00;100753.41;4993798;28;20449;-75
2021/06/06 03:27:32;;;;;;;1.60;1.60;;;;;;;17.83;100.00;100762.47;4994842;28;20446;-75
2021/06/06 03:30:14;;;;;;;0.43;0.30;;;;;;;17.70;100.00;100754.16;4996340;28;20966;-75
2021/06/06 03:32:45;;;;;;;1.30;1.30;;;;;;;17.51;100.00;100755.97;4997006;28;20522;-76
2021/06/06 03:35:12;;;;;;;0.40;0.30;;;;;;;17.54;100.00;100758.50;4974728;28;20534;-75
2021/06/06 03:37:40;;;;;;;3.80;0.97;;;;;;;17.54;100.00;100758.50;4988716;28;20493;-76
2021/06/06 03:40:09;;;;;;;0.50;0.40;;;;;;;17.40;100.00;100763.69;4981964;28;20473;-76
2021/06/06 03:42:37;;;;;;;0.40;0.20;;;;;;;17.38;100.00;100754.84;4980822;28;20447;-75
2021/06/06 03:45:06;;;;;;;0.40;0.27;;;;;;;17.28;100.00;100765.19;4994394;28;20814;-76
2021/06/06 03:47:33;;;;;;;0.60;0.60;;;;;;;17.23;100.00;100764.53;4981173;28;20861;-76
2021/06/06 03:50:00;;;;;;;0.97;0.97;;;;;;;17.13;100.00;100753.38;4986082;28;20474;-76
2021/06/06 03:52:33;;;;;;;0.50;0.37;;;;;;;17.11;100.00;100749.00;4990009;28;20453;-76
2021/06/06 03:55:02;;;;;;;0.40;0.30;;;;;;;17.10;100.00;100764.25;4984855;28;20466;-75
2021/06/06 03:57:32;;;;;;;2.90;2.70;;;;;;;17.15;100.00;100750.63;4989866;28;20512;-75
2021/06/06 04:00:00;;;;;;;0.50;0.50;;;;;;;17.13;100.00;100755.16;4984701;28;20477;-76
2021/06/06 04:02:26;;;;;;;0.43;0.30;;;;;;;17.37;100.00;100756.66;4990430;28;20954;-76
2021/06/06 04:04:53;;;;;;;0.40;0.30;;;;;;;17.08;100.00;100755.41;4986003;28;20461;-76
2021/06/06 04:07:20;;;;;;;30.20;3.10;;;;;;;17.36;100.00;100756.75;4989866;28;20477;-75
2021/06/06 04:09:48;;;;;;;0.50;0.43;;;;;;;17.36;100.00;100756.75;4986071;28;20900;-76
2021/06/06 04:12:15;;;;;;;0.70;0.60;;;;;;;17.40;100.00;100758.31;4989560;28;20450;-76
2021/06/06 04:14:41;;;;;;;1.43;1.43;;;;;;;17.45;100.00;100757.16;4986451;28;20493;-76
2021/06/06 04:17:08;;;;;;;0.40;0.30;;;;;;;17.45;100.00;100749.09;4989465;28;20943;-75
2021/06/06 04:19:35;;;;;;;0.40;0.30;;;;;;;17.48;100.00;100750.78;4986692;28;20500;-75
2021/06/06 04:22:02;;;;;;;0.73;0.60;;;;;;;17.41;100.00;100754.72;4988141;28;20960;-76
2021/06/06 04:24:31;;;;;;;3.97;1.27;;;;;;;17.37;100.00;100750.41;5015886;28;20492;-75
2021/06/06 04:26:58;;;;;;;0.97;0.97;;;;;;;17.34;100.00;100755.94;4996558;28;20450;-76
2021/06/06 04:29:24;;;;;;;0.63;0.63;;;;;;;17.28;100.00;100759.81;5007067;28;20552;-76
2021/06/06 04:31:51;;;;;;;6.57;1.43;;;;;;;17.42;100.00;100754.66;4972670;28;20454;-76
2021/06/06 04:34:18;;;;;;;0.50;0.40;;;;;;;17.74;100.00;100752.19;4987090;28;20489;-76
2021/06/06 04:36:48;;;;;;;1.63;1.53;;;;;;;17.89;100.00;100754.09;4993385;28;20535;-76
2021/06/06 04:39:15;;;;;;;0.43;0.27;;;;;;;17.59;100.00;100755.63;4981057;28;20466;-76
2021/06/06 04:41:43;;;;;;;2.20;2.00;;;;;;;17.81;100.00;100753.59;5000909;28;21015;-75
2021/06/06 04:44:09;;;;;;;1.97;0.97;;;;;;;17.76;100.00;100756.53;4988004;28;20449;-75
2021/06/06 04:46:37;;;;;;;1.13;0.97;;;;;;;17.51;100.00;100752.44;4993222;28;20457;-76
2021/06/06 04:49:03;;;;;;;0.63;0.63;;;;;;;17.52;100.00;100756.84;4980115;28;20482;-76
2021/06/06 04:51:30;;;;;;;0.50;0.30;;;;;;;17.44;100.00;100746.50;4985786;28;20513;-76
2021/06/06 04:53:57;;;;;;;0.50;0.40;;;;;;;17.63;100.00;100751.81;4987827;28;20572;-75
2021/06/06 04:56:25;;;;;;;0.80;0.80;;;;;;;17.31;100.00;100748.06;4990222;28;20449;-75
2021/06/06 04:58:53;;;;;;;1.30;1.30;;;;;;;17.70;100.00;100755.97;4991302;28;20473;-75
2021/06/06 05:01:20;;;;;;;0.40;0.30;;;;;;;18.02;100.00;100744.44;4972259;28;20450;-75
2021/06/06 05:03:47;;;;;;;2.10;2.00;;;;;;;18.14;100.00;100747.44;4988136;28;20454;-75
2021/06/06 05:06:14;;;;;;;13.70;1.33;;;;;;;17.92;100.00;100753.91;4993438;28;20431;-75
2021/06/06 05:08:41;;;;;;;2.30;0.73;;;;;;;17.79;100.00;100754.63;4978739;28;20470;-75
2021/06/06 05:11:08;;;;;;;0.47;0.27;;;;;;;17.71;100.00;100768.47;4991581;28;20457;-74
2021/06/06 05:13:34;;;;;;;0.77;0.60;;;;;;;17.55;100.00;100762.09;4989875;28;20501;-75
2021/06/06 05:16:01;;;;;;;0.40;0.20;;;;;;;17.60;100.00;100768.09;4982211;28;20461;-74
2021/06/06 05:18:28;;;;;;;0.40;0.20;;;;;;;17.60;100.00;100773.50;4979026;28;20525;-75
2021/06/06 05:20:56;;;;;;;0.80;0.80;;;;;;;17.62;100.00;100772.44;4982443;28;20858;-75
2021/06/06 05:23:26;;;;;;;0.40;0.40;;;;;;;17.61;100.00;100778.78;4988617;28;20615;-75
2021/06/06 05:25:53;;;;;;;0.67;0.67;;;;;;;17.30;100.00;100786.63;4988123;28;20887;-74
2021/06/06 05:28:24;;;;;;;0.47;0.37;;;;;;;17.48;100.00;100783.03;4999411;28;20538;-75
2021/06/06 05:30:51;;;;;;;0.40;0.40;;;;;;;17.17;100.00;100787.22;4988824;28;20959;-74
2021/06/06 05:33:18;;;;;;;0.40;0.20;;;;;;;17.30;100.00;100790.19;4991097;28;20848;-74
2021/06/06 05:35:45;;;;;;;0.40;0.20;;;;;;;17.35;100.00;100790.81;4992455;28;20457;-74
2021/06/06 05:38:13;;;;;;;0.40;0.20;;;;;;;17.26;100.00;100796.63;4978672;28;20477;-74
2021/06/06 05:40:42;;;;;;;0.40;0.30;;;;;;;17.08;100.00;100793.00;4992575;28;20457;-74
2021/06/06 05:43:09;;;;;;;0.50;0.50;;;;;;;17.30;100.00;100794.69;4979243;28;20457;-75
2021/06/06 05:45:36;;;;;;;0.40;0.20;;;;;;;17.44;100.00;100793.06;5006947;28;20453;-74
2021/06/06 05:48:05;;;;;;;0.40;0.40;;;;;;;17.28;100.00;100794.75;4994678;28;20453;-74
2021/06/06 05:50:35;;;;;;;0.83;0.83;;;;;;;17.39;100.00;100797.78;4978964;28;20493;-74
2021/06/06 05:53:02;;;;;;;1.07;1.07;;;;;;;17.31;100.00;100788.34;4980874;28;20468;-74
2021/06/06 05:55:29;;;;;;;0.40;0.20;;;;;;;17.36;100.00;100789.88;4990422;28;20457;-74
2021/06/06 05:57:56;;;;;;;1.27;1.27;;;;;;;17.35;100.00;100790.81;4981319;28;20449;-74
2021/06/06 06:00:30;;;;;;;0.43;0.30;;;;;;;17.14;100.00;100791.88;4995717;28;20457;-74
2021/06/06 06:02:57;;;;;;;0.40;0.30;;;;;;;17.30;100.00;100781.25;4987060;28;20529;-74
2021/06/06 06:05:24;;;;;;;0.40;0.20;;;;;;;17.18;100.00;100780.88;4992021;28;20461;-75
2021/06/06 06:07:51;;;;;;;0.50;0.40;;;;;;;17.38;100.00;100787.09;4986261;28;20489;-75
2021/06/06 06:10:25;;;;;;;1.90;1.80;;;;;;;17.56;100.00;100788.03;4993426;28;20574;-74
2021/06/06 06:12:53;;;;;;;6.37;0.83;;;;;;;17.29;100.00;100795.63;4995082;28;20997;-75
2021/06/06 06:15:20;;;;;;;0.40;0.20;;;;;;;17.31;100.00;100789.22;4996054;28;20950;-74
2021/06/06 06:17:47;;;;;;;0.40;0.20;;;;;;;17.35;100.00;100792.63;4984923;28;21223;-75
2021/06/06 06:20:18;;;;;;;0.40;0.20;;;;;;;17.14;100.00;100778.44;4994273;28;20942;-75
2021/06/06 06:22:45;;;;;;;10.33;2.93;;;;;;;17.36;100.00;100784.50;4984234;28;20872;-75
2021/06/06 06:25:14;;;;;;;0.50;0.50;;;;;;;17.41;100.00;100787.84;4996200;28;20461;-75
2021/06/06 06:27:41;;;;;;;0.40;0.20;;;;;;;17.31;100.00;100785.66;4984392;28;20464;-74
2021/06/06 06:30:12;;;;;;;0.70;0.70;;;;;;;17.71;100.00;100779.22;5028186;28;20457;-76
2021/06/06 06:32:39;;;;;;;1.53;1.07;;;;;;;17.74;100.00;100787.13;4986406;28;20450;-75
2021/06/06 06:35:07;;;;;;;0.40;0.30;;;;;;;17.65;100.00;100785.75;4983715;28;21010;-75
2021/06/06 06:37:34;;;;;;;0.40;0.20;;;;;;;17.49;100.00;100787.44;4982572;28;20537;-75
2021/06/06 06:40:02;;;;;;;0.50;0.40;;;;;;;17.50;100.00;100786.50;4976117;28;20478;-75
2021/06/06 06:42:29;;;;;;;0.40;0.37;;;;;;;17.72;100.00;100791.72;4990251;28;20474;-75
2021/06/06 06:44:55;;;;;;;0.40;0.20;;;;;;;17.63;100.00;100787.63;5011134;28;20458;-75
2021/06/06 06:47:22;;;;;;;0.83;0.83;;;;;;;17.50;100.00;100796.38;4994572;28;20453;-75
2021/06/06 06:49:51;;;;;;;1.00;1.00;;;;;;;17.61;100.00;100804.81;4976432;28;20470;-75
2021/06/06 06:52:17;;;;;;;2.50;2.40;;;;;;;17.47;100.00;100798.28;4989956;28;20445;-75
2021/06/06 06:54:44;;;;;;;0.50;0.50;;;;;;;17.62;100.00;100802.03;4984157;28;20492;-75
2021/06/06 06:57:11;;;;;;;1.33;1.33;;;;;;;17.54;100.00;100798.84;4993416;28;20457;-75
2021/06/06 06:59:37;;;;;;;0.40;0.20;;;;;;;17.61;100.00;100807.50;4994665;28;20473;-75
2021/06/06 07:02:05;;;;;;;0.40;0.20;;;;;;;17.43;100.00;100804.75;4981281;28;20484;-75
2021/06/06 07:04:32;;;;;;;0.50;0.50;;;;;;;17.35;100.00;100806.06;4996306;28;20516;-75
2021/06/06 07:06:59;;;;;;;0.70;0.70;;;;;;;17.43;100.00;100804.75;4982708;28;20455;-75
2021/06/06 07:09:26;;;;;;;0.40;0.20;;;;;;;17.41;100.00;100813.84;4995678;28;20528;-75
2021/06/06 07:11:56;;;;;;;0.40;0.20;;;;;;;17.33;100.00;100816.91;4994948;28;20977;-76
2021/06/06 07:14:23;;;;;;;0.40;0.20;;;;;;;17.33;100.00;100822.28;4985717;28;20976;-77
2021/06/06 07:16:50;;;;;;;0.40;0.20;;;;;;;17.44;100.00;100821.75;4991680;28;20454;-74
2021/06/06 07:19:17;;;;;;;0.40;0.27;;;;;;;17.39;100.00;100815.72;4985601;28;20474;-74
2021/06/06 07:21:44;;;;;;;0.40;0.20;;;;;;;17.38;100.00;100819.34;4992651;28;20939;-75
2021/06/06 07:24:11;;;;;;;0.40;0.20;;;;;;;17.44;100.00;100816.38;4995272;28;20512;-75
2021/06/06 07:26:44;;;;;;;0.40;0.20;;;;;;;17.39;100.00;100811.22;4986880;28;20465;-75
2021/06/06 07:29:13;;;;;;;0.40;0.20;;;;;;;17.44;100.00;100817.25;4997827;28;20977;-75
2021/06/06 07:31:43;;;;;;;0.60;0.60;;;;;;;17.56;100.00;100820.28;4983719;28;20472;-75
2021/06/06 07:34:14;;;;;;;0.70;0.70;;;;;;;17.69;100.00;100808.91;4994139;28;20552;-75
2021/06/06 07:36:41;;;;;;;0.50;0.40;;;;;;;17.76;100.00;100809.44;4977016;28;20462;-75
2021/06/06 07:39:09;;;;;;;0.40;0.30;;;;;;;17.80;100.00;100811.03;4987523;28;20531;-75
2021/06/06 07:41:36;;;;;;;0.40;0.30;;;;;;;17.85;100.00;100805.44;4975805;28;20446;-75
2021/06/06 07:44:02;;;;;;;0.50;0.30;;;;;;;17.92;100.00;100810.41;4987583;28;20449;-75
2021/06/06 07:46:29;;;;;;;0.67;0.63;;;;;;;17.94;100.00;100802.25;4988573;28;20463;-75
2021/06/06 07:48:59;;;;;;;0.40;0.20;;;;;;;18.08;100.00;100801.56;4989436;28;20480;-75
2021/06/06 07:51:27;;;;;;;1.43;1.33;;;;;;;18.12;100.00;100808.53;4987753;28;20458;-75
2021/06/06 07:53:53;;;;;;;0.40;0.20;;;;;;;18.03;100.00;100808.06;4989450;28;20911;-75
2021/06/06 07:56:21;;;;;;;0.40;0.30;;;;;;;18.23;100.00;100806.19;4987010;28;20463;-75
2021/06/06 07:58:48;;;;;;;0.40;0.20;;;;;;;18.28;100.00;100801.41;4975821;28;20479;-75
2021/06/06 08:01:14;;;;;;;2.50;0.63;;;;;;;18.43;100.00;100803.28;5001774;28;20928;-75
2021/06/06 08:03:41;;;;;;;0.40;0.20;;;;;;;18.50;100.00;100802.03;4988442;28;20461;-75
2021/06/06 08:06:10;;;;;;;0.40;0.30;;;;;;;18.56;100.00;100809.75;4994502;28;20511;-75
2021/06/06 08:08:38;;;;;;;0.40;0.30;;;;;;;18.45;100.00;100814.84;4980319;28;20478;-75
2021/06/06 08:11:06;;;;;;;1.33;1.33;;;;;;;18.63;100.00;100802.22;5009680;28;20846;-75
2021/06/06 08:13:33;;;;;;;0.40;0.20;;;;;;;18.68;99.98;100810.97;4981367;28;20461;-75
2021/06/06 08:16:00;;;;;;;1.70;0.83;;;;;;;18.70;100.00;100818.97;4985103;28;20466;-75
2021/06/06 08:18:35;;;;;;;0.50;0.50;;;;;;;18.48;99.24;100809.28;4990436;28;20473;-76
2021/06/06 08:21:07;;;;;;;1.03;1.03;;;;;;;18.60;100.00;100816.72;4982721;28;20508;-75
2021/06/06 08:23:35;;;;;;;2.20;2.10;;;;;;;18.74;100.00;100820.53;4991076;28;20588;-75
2021/06/06 08:26:04;;;;;;;0.47;0.33;;;;;;;18.45;100.00;100812.16;4992184;28;20454;-74
2021/06/06 08:28:32;;;;;;;0.40;0.30;;;;;;;18.48;100.00;100814.69;4985982;28;20473;-75
2021/06/06 08:31:04;;;;;;;0.40;0.20;;;;;;;18.70;100.00;100818.97;4998938;28;20507;-75
2021/06/06 08:33:33;;;;;;;0.40;0.20;;;;;;;18.73;100.00;100816.09;4994561;28;20524;-76
2021/06/06 08:36:11;;;;;;;8.40;2.00;;;;;;;18.54;99.72;100813.50;5007611;28;20520;-75
2021/06/06 08:38:39;;;;;;;0.53;0.53;;;;;;;18.64;100.00;100821.03;4993519;28;20469;-75
2021/06/06 08:41:08;;;;;;;0.60;0.60;;;;;;;18.64;99.99;100810.28;4990458;28;20462;-75
2021/06/06 08:43:42;;;;;;;0.50;0.40;;;;;;;18.70;99.40;100817.13;4983730;28;20450;-75
2021/06/06 08:46:11;;;;;;;0.50;0.30;;;;;;;18.76;99.06;100824.00;4994609;28;21005;-75
2021/06/06 08:48:39;;;;;;;0.50;0.30;;;;;;;18.80;98.63;100821.09;4982329;28;20843;-76
2021/06/06 08:51:23;;;;;;;1.07;0.97;;;;;;;18.66;99.61;100809.31;4992742;28;21026;-76
2021/06/06 08:54:15;;;;;;;0.40;0.20;;;;;;;18.54;99.06;100825.13;4991019;28;20488;-75
2021/06/06 08:56:44;;;;;;;3.40;2.83;;;;;;;18.80;99.60;100826.47;4977517;28;20470;-76
2021/06/06 08:59:27;;;;;;;0.97;0.97;;;;;;;18.76;98.23;100819.50;4990464;28;20486;-76
2021/06/06 09:02:22;;;;;;;1.23;0.50;;;;;;;18.88;98.77;100828.72;4992868;28;20927;-75
2021/06/06 09:04:50;;;;;;;1.43;1.33;;;;;;;18.83;98.97;100825.44;4992661;28;20449;-75
2021/06/06 09:07:26;;;;;;;0.40;0.20;;;;;;;18.92;97.92;100820.44;4979859;28;20585;-76
2021/06/06 09:09:53;;;;;;;0.40;0.20;;;;;;;18.62;99.04;100825.59;4992088;28;20900;-75
2021/06/06 09:12:22;;;;;;;0.40;0.30;;;;;;;18.68;99.46;100826.25;4992722;28;20453;-75
2021/06/06 09:14:51;;;;;;;5.30;0.97;;;;;;;18.81;99.33;100814.75;4979453;28;20501;-76
2021/06/06 09:17:31;;;;;;;0.53;0.53;;;;;;;18.63;97.98;100821.97;4992207;28;20464;-75
2021/06/06 09:19:59;;;;;;;0.40;0.30;;;;;;;18.78;99.51;100822.13;4979594;28;20501;-76
2021/06/06 09:22:44;;;;;;;0.40;0.20;;;;;;;19.19;97.30;100817.16;4992707;28;20465;-75
2021/06/06 09:25:33;;;;;;;0.40;0.20;;;;;;;19.33;97.17;100827.16;4992618;28;20511;-76
2021/06/06 09:28:08;;;;;;;0.40;0.27;;;;;;;19.27;96.17;100819.41;4993994;28;20487;-76
2021/06/06 09:30:36;;;;;;;0.53;0.50;;;;;;;18.95;96.97;100827.47;4992993;28;20450;-76
2021/06/06 09:33:12;;;;;;;1.03;1.03;;;;;;;18.87;98.33;100818.91;4989027;28;20420;-75
2021/06/06 09:36:17;;;;;;;0.40;0.20;;;;;;;19.14;97.67;100822.78;4985553;28;20496;-76
2021/06/06 09:38:46;;;;;;;4.87;1.40;;;;;;;19.37;96.20;100820.63;4986779;28;20473;-75
2021/06/06 09:41:18;;;;;;;1.03;1.03;;;;;;;19.24;96.87;100824.03;4993023;28;20516;-76
2021/06/06 09:44:05;;;;;;;0.40;0.27;;;;;;;19.45;97.01;100821.06;4977404;28;20424;-75
2021/06/06 09:47:07;;;;;;;0.77;0.77;;;;;;;19.51;94.83;100818.03;4989881;28;20825;-76
2021/06/06 09:49:41;;;;;;;1.77;0.80;;;;;;;19.31;95.86;100827.22;4994916;28;20479;-76
2021/06/06 09:52:42;;;;;;;0.50;0.50;;;;;;;19.28;96.83;100827.41;4984604;28;20448;-76
2021/06/06 09:55:31;;;;;;;0.40;0.30;;;;;;;19.56;95.41;100826.75;4988024;28;21028;-76
2021/06/06 09:58:23;;;;;;;0.80;0.80;;;;;;;19.87;95.28;100833.94;4984383;28;20935;-76
2021/06/06 10:00:52;;;;;;;0.40;0.20;;;;;;;19.69;94.09;100835.88;4989496;28;20539;-76
2021/06/06 10:03:31;;;;;;;0.60;0.60;;;;;;;20.02;94.31;100834.88;4975374;28;20501;-76
2021/06/06 10:06:13;;;;;;;0.40;0.20;;;;;;;20.03;92.54;100842.03;4983228;28;20831;-75
2021/06/06 10:08:41;;;;;;;1.53;1.43;;;;;;;19.62;94.40;100833.63;4982657;28;20472;-76
2021/06/06 10:11:17;;;;;;;0.40;0.20;;;;;;;20.11;92.97;100843.28;4996265;28;20468;-76
2021/06/06 10:13:49;;;;;;;0.40;0.20;;;;;;;20.23;91.87;100839.00;4982978;28;20453;-76
2021/06/06 10:16:28;;;;;;;0.40;0.30;;;;;;;19.96;92.32;100841.50;4996327;28;20527;-75
2021/06/06 10:19:27;;;;;;;0.57;0.57;;;;;;;19.93;93.21;100840.81;4982993;28;20476;-76
2021/06/06 10:22:00;;;;;;;0.40;0.30;;;;;;;19.96;93.21;100829.84;4990819;28;20521;-75
2021/06/06 10:24:43;;;;;;;0.67;0.67;;;;;;;20.01;93.59;100831.31;4988285;28;20903;-76
2021/06/06 10:27:17;;;;;;;1.90;0.87;;;;;;;19.45;95.73;100832.72;5008138;28;20453;-76
2021/06/06 10:30:09;;;;;;;0.40;0.20;;;;;;;20.00;94.43;100834.94;5006623;28;20533;-76
2021/06/06 10:32:44;;;;;;;0.40;0.20;;;;;;;20.18;92.89;100841.13;4988512;28;20448;-76
2021/06/06 10:35:15;;;;;;;0.40;0.37;;;;;;;20.68;92.38;100829.06;5003567;28;20492;-76
2021/06/06 10:37:52;;;;;;;5.67;0.67;;;;;;;20.77;90.96;100833.06;4978415;28;20521;-75
2021/06/06 10:40:27;;;;;;;0.60;0.60;;;;;;;20.75;89.95;100835.00;5001681;28;20874;-76
2021/06/06 10:43:09;;;;;;;0.40;0.20;;;;;;;20.56;91.04;100837.94;4990273;28;20476;-77
2021/06/06 10:45:43;;;;;;;0.50;0.20;;;;;;;20.73;91.61;100836.91;4994778;28;20445;-77
2021/06/06 10:48:17;;;;;;;0.87;0.87;;;;;;;20.98;89.49;100837.13;4995707;28;20555;-76
2021/06/06 10:50:50;;;;;;;1.13;1.03;;;;;;;20.29;92.79;100824.28;4982320;28;20486;-76
2021/06/06 10:53:23;;;;;;;4.63;1.70;;;;;;;20.74;90.60;100835.97;4995043;28;20452;-75
2021/06/06 10:55:58;;;;;;;6.53;1.50;;;;;;;20.94;90.39;100830.16;4991992;28;20490;-75
2021/06/06 10:58:33;;;;;;;1.37;1.37;;;;;;;20.66;91.43;100836.41;5001063;28;20527;-76
2021/06/06 11:01:07;;;;;;;0.40;0.20;;;;;;;20.79;90.12;100820.31;4989485;28;20454;-77
2021/06/06 11:03:36;;;;;;;0.40;0.30;;;;;;;20.99;90.56;100823.50;4990240;28;20496;-77
2021/06/06 11:06:19;;;;;;;0.50;0.40;;;;;;;21.11;89.16;100818.31;5010301;28;20507;-76
2021/06/06 11:08:46;;;;;;;5.87;5.57;;;;;;;20.11;91.37;100821.69;4982248;28;20469;-76
2021/06/06 11:11:20;;;;;;;0.93;0.93;;;;;;;20.56;91.95;100817.22;4995406;28;20823;-76
2021/06/06 11:13:58;;;;;;;0.40;0.20;;;;;;;20.64;90.14;100805.94;4993791;28;20424;-76
2021/06/06 11:16:38;;;;;;;0.40;0.20;;;;;;;20.95;90.37;100811.13;4983275;28;20480;-76
2021/06/06 11:19:09;;;;;;;0.50;0.40;;;;;;;20.73;90.78;100816.16;4974847;28;20515;-76
2021/06/06 11:21:41;;;;;;;0.40;0.30;;;;;;;20.60;90.65;100802.56;5003204;28;20432;-76
2021/06/06 11:24:23;;;;;;;1.23;1.23;;;;;;;20.86;90.86;100794.66;4975517;28;20458;-76
2021/06/06 11:26:59;;;;;;;0.40;0.20;;;;;;;21.19;89.48;100795.19;4987056;28;20468;-76
2021/06/06 11:29:39;;;;;;;0.40;0.20;;;;;;;21.16;90.70;100798.09;4988489;28;20471;-76
2021/06/06 11:32:12;;;;;;;0.40;0.20;;;;;;;21.51;90.29;100792.25;4974263;28;20428;-76
2021/06/06 11:34:42;;;;;;;0.50;0.30;;;;;;;20.89;89.98;100794.44;4986903;28;20854;-76
2021/06/06 11:37:32;;;;;;;0.40;0.30;;;;;;;20.97;91.20;100792.16;4975897;28;20470;-76
2021/06/06 11:40:03;;;;;;;0.40;0.30;;;;;;;21.06;89.32;100787.97;4973842;28;20449;-76
2021/06/06 11:42:36;;;;;;;0.40;0.20;;;;;;;20.97;89.13;100784.91;4988937;28;20950;-76
2021/06/06 11:45:15;;;;;;;0.50;0.33;;;;;;;20.94;90.34;100779.66;4994563;28;20935;-76
2021/06/06 11:47:52;;;;;;;0.70;0.70;;;;;;;20.99;89.45;100777.56;4994700;28;20446;-76
2021/06/06 11:50:35;;;;;;;0.57;0.57;;;;;;;20.85;89.64;100782.97;4982084;28;20467;-76